Hauptseite
METAR-TAF:

METAR-TAF

Flughäfen :

Bratsk, Russland

Breite: 56-22-15N, Länge: 101-41-55E, Höhe: 490 m

Beobachtung

Neuester Wetterbericht von vor 25 Minuten, um 23:00 UTC
Wind 4 kt aus Nord/Nordwest, variierte zwischen West und Nord
Temperatur 12°C
Luftfeuchtigkeit 82%
Luftdruck 1012 hPa
Sichtweite 10 km oder mehr
Aufgelockert bewölkt in der Höhe von 1000 ft

METAR: UIBB 232300Z 33002MPS 280V010 9999 SCT010 12/09 Q1012 R30/60D NOSIG RMK MT OBSC QFE716/0955

Zeit: 07:25 (23:25 UTC)

Prognose

Neuester Wetterbericht von vor 3 Stunden und 25 Minuten, um 20:00 UTC
Gültige Prognose vom 23 um 21 UTC bis 24 um 21 UTC
Wind 6 kt aus Nord/Nordwest, Böen bis zu 16 kt
Sichtweite 10 km oder mehr
Aufgelockert bewölkt in der Höhe von 5000 ft, Kumulonimbus.
Zeitweise
vom 24 um 03 UTC bis 24 um 12 UTC
Wind 16 kt aus unterschiedlichen Richtungen

TAF: UIBB 232000Z 2321/2421 33003G08MPS 9999 SCT050CB TEMPO 2403/2412 VRB08MPS

Wetterbeobachtungen und Prognosen von mehr als 4000 Flughäfen (METAR und TAF Bericht).

Die verfügbaren Stationen werden durch gelbe und rote Markierungen auf der Karte dargestellt.

Führen Sie die Maus auf sie, um den Namen der Station zu sehen.

Darauf klicken, um die Beobachtung von Wetterbeobachtungen und Prognosen zu sehen.

Um die Karte zu ändern : klicken Sie auf den grünen Tasten mit einem schwarzen Kreuz Zum Vergrößern, auf den grünen Button mit einem Gedankenstrich zu verkleinern, oder auf die grünen Pfeile für benachbarte Karten.


METAR-TAF: